createdAt,value
2019-04-16T00:02:24.002Z,19.30
2019-04-16T00:05:04.307Z,20.43
2019-04-16T00:07:59.692Z,21.53
2019-04-16T00:10:58.264Z,21.60
2019-04-16T00:13:34.967Z,22.83
2019-04-16T00:16:05.421Z,23.30
2019-04-16T00:18:35.810Z,23.40
2019-04-16T00:21:38.504Z,23.83
2019-04-16T00:24:30.683Z,24.80
2019-04-16T00:27:01.058Z,24.50
2019-04-16T00:29:33.131Z,25.17
2019-04-16T00:32:09.139Z,25.77
2019-04-16T00:34:37.669Z,27.60
2019-04-16T00:37:08.442Z,26.60
2019-04-16T00:39:38.788Z,26.03
2019-04-16T00:42:09.008Z,26.20
2019-04-16T00:44:39.275Z,27.00
2019-04-16T00:47:09.967Z,26.57
2019-04-16T00:49:40.227Z,26.90
2019-04-16T00:52:10.509Z,27.80
2019-04-16T00:54:42.447Z,25.47
2019-04-16T00:57:17.577Z,26.57
2019-04-16T00:59:44.535Z,26.03
2019-04-16T01:02:14.913Z,25.10
2019-04-16T01:04:45.175Z,26.57
2019-04-16T01:07:15.908Z,24.93
2019-04-16T01:09:46.145Z,25.13
2019-04-16T01:12:16.524Z,24.23
2019-04-16T01:14:47.277Z,26.10
2019-04-16T01:17:17.575Z,24.63
2019-04-16T01:19:47.849Z,22.60
2019-04-16T01:22:19.416Z,23.60
2019-04-16T01:24:52.583Z,22.47
2019-04-16T01:27:30.043Z,22.63
2019-04-16T01:30:05.090Z,23.30
2019-04-16T01:32:51.433Z,21.50
2019-04-16T01:35:40.917Z,22.83
2019-04-16T01:38:39.061Z,21.43
2019-04-16T01:41:12.500Z,21.53
2019-04-16T01:43:42.907Z,21.77
2019-04-16T01:46:14.765Z,20.97
2019-04-16T01:48:45.358Z,20.17
2019-04-16T01:51:16.247Z,19.47
2019-04-16T01:53:49.505Z,20.37
2019-04-16T01:56:18.958Z,20.73
2019-04-16T01:58:49.255Z,21.37
2019-04-16T02:01:19.508Z,19.90
2019-04-16T02:03:49.754Z,20.77
2019-04-16T02:06:20.079Z,18.43
2019-04-16T02:08:50.384Z,19.40
2019-04-16T02:11:20.640Z,19.70
2019-04-16T02:13:51.106Z,20.47
2019-04-16T02:16:22.342Z,20.97
2019-04-16T02:18:53.620Z,19.80
2019-04-16T02:21:24.115Z,18.37
2019-04-16T02:23:54.419Z,18.03
2019-04-16T02:26:24.692Z,18.47
2019-04-16T02:28:56.514Z,19.17
2019-04-16T02:31:26.816Z,18.37
2019-04-16T02:33:57.146Z,19.00
2019-04-16T02:36:27.429Z,18.10
2019-04-16T02:38:57.755Z,18.93
2019-04-16T02:41:28.007Z,18.17
2019-04-16T02:43:58.495Z,18.37
2019-04-16T02:46:32.074Z,17.67
2019-04-16T02:49:00.890Z,16.87
2019-04-16T02:52:06.647Z,18.00
2019-04-16T02:55:09.523Z,16.33
2019-04-16T02:57:43.582Z,16.60
2019-04-16T03:00:42.609Z,16.60
2019-04-16T03:03:18.791Z,15.63
2019-04-16T03:05:52.031Z,15.90
2019-04-16T03:08:22.519Z,16.53
2019-04-16T03:10:52.678Z,15.40
2019-04-16T03:13:24.036Z,15.33
2019-04-16T03:16:22.787Z,15.43
2019-04-16T03:18:57.815Z,15.20
2019-04-16T03:21:28.245Z,14.93
2019-04-16T03:23:58.742Z,14.50
2019-04-16T03:26:29.092Z,14.67
2019-04-16T03:28:59.572Z,14.40
2019-04-16T03:31:30.143Z,14.80
2019-04-16T03:34:00.477Z,14.17
2019-04-16T03:36:30.803Z,14.00
2019-04-16T03:39:01.434Z,14.10
2019-04-16T03:41:33.142Z,13.47
2019-04-16T03:44:04.976Z,15.17
2019-04-16T03:46:35.649Z,14.30
2019-04-16T03:49:08.324Z,14.27
2019-04-16T03:51:38.622Z,14.67
2019-04-16T03:54:08.879Z,13.53
2019-04-16T03:56:39.454Z,13.83
2019-04-16T03:59:11.836Z,13.87
2019-04-16T04:01:45.515Z,13.17
2019-04-16T04:04:13.560Z,13.30
2019-04-16T04:06:43.790Z,14.47
2019-04-16T04:09:14.120Z,13.30
2019-04-16T04:11:44.724Z,13.60
2019-04-16T04:14:15.150Z,14.13
2019-04-16T04:16:45.430Z,14.03
2019-04-16T04:19:16.097Z,13.33
2019-04-16T04:21:50.616Z,13.33
2019-04-16T04:24:19.845Z,13.40
2019-04-16T04:26:50.398Z,12.60
2019-04-16T04:29:24.091Z,12.97
2019-04-16T04:31:53.398Z,12.90
2019-04-16T04:34:23.665Z,13.20
2019-04-16T04:36:58.855Z,12.83
2019-04-16T04:39:26.828Z,12.23
2019-04-16T04:41:57.264Z,11.83
2019-04-16T04:44:27.758Z,11.90
2019-04-16T04:46:58.007Z,11.60
2019-04-16T04:49:30.409Z,11.93
2019-04-16T04:52:01.525Z,12.47
2019-04-16T04:54:31.778Z,13.23
2019-04-16T04:57:02.270Z,14.23
2019-04-16T04:59:36.523Z,14.23
2019-04-16T05:02:04.611Z,14.23
2019-04-16T05:05:03.040Z,13.63
2019-04-16T05:07:33.326Z,12.83
2019-04-16T05:10:04.576Z,12.23
2019-04-16T05:12:35.893Z,12.30
2019-04-16T05:15:06.699Z,12.07
2019-04-16T05:17:38.597Z,11.90
2019-04-16T05:20:08.860Z,11.90
2019-04-16T05:22:39.345Z,12.40
2019-04-16T05:25:09.938Z,12.33
2019-04-16T05:27:41.601Z,12.57
2019-04-16T05:30:13.207Z,12.63
2019-04-16T05:32:43.484Z,11.60
2019-04-16T05:35:14.309Z,12.03
2019-04-16T05:37:44.543Z,11.33
2019-04-16T05:40:15.343Z,11.43
2019-04-16T05:42:45.611Z,11.40
2019-04-16T05:45:15.971Z,11.40
2019-04-16T05:47:48.982Z,10.67
2019-04-16T05:50:18.646Z,10.70
2019-04-16T05:52:49.086Z,10.70
2019-04-16T05:55:30.875Z,11.43
2019-04-16T05:58:01.345Z,11.13
2019-04-16T06:00:38.498Z,10.80
2019-04-16T06:03:09.023Z,11.03
2019-04-16T06:05:39.634Z,11.33
2019-04-16T06:08:11.301Z,10.67
2019-04-16T06:10:42.004Z,10.60
2019-04-16T06:13:44.536Z,11.00
2019-04-16T06:16:39.991Z,10.97
2019-04-16T06:19:46.792Z,10.67
2019-04-16T06:22:27.965Z,10.03
2019-04-16T06:25:23.748Z,10.90
2019-04-16T06:28:13.513Z,11.03
2019-04-16T06:31:04.997Z,10.10
2019-04-16T06:33:55.712Z,10.03
2019-04-16T06:36:49.067Z,9.90
2019-04-16T06:39:38.502Z,8.97
2019-04-16T06:42:38.636Z,8.67
2019-04-16T06:45:22.421Z,8.60
2019-04-16T06:47:59.678Z,8.80
2019-04-16T06:50:58.031Z,9.60
2019-04-16T06:54:02.532Z,9.58
2019-04-16T06:56:42.714Z,8.43
2019-04-16T06:59:26.575Z,7.73
2019-04-16T07:02:15.531Z,8.03
2019-04-16T07:05:03.870Z,7.93
2019-04-16T07:08:00.789Z,6.77
2019-04-16T07:10:44.342Z,6.97
2019-04-16T07:13:11.159Z,6.30
2019-04-16T07:15:39.938Z,6.33
2019-04-16T07:18:10.152Z,6.50
2019-04-16T07:20:42.298Z,5.27
2019-04-16T07:23:12.396Z,5.23
2019-04-16T07:25:44.221Z,5.47
2019-04-16T07:28:30.843Z,5.37
2019-04-16T07:31:33.433Z,5.33
2019-04-16T07:34:22.955Z,5.87
2019-04-16T07:37:06.763Z,7.83
2019-04-16T07:39:46.333Z,5.53
2019-04-16T07:42:26.348Z,7.30
2019-04-16T07:45:13.878Z,5.10
2019-04-16T07:48:22.511Z,5.00
2019-04-16T07:51:08.702Z,5.00
2019-04-16T07:54:03.379Z,6.20
2019-04-16T07:56:34.442Z,5.60
2019-04-16T07:59:04.690Z,5.07
2019-04-16T08:01:35.242Z,3.30
2019-04-16T08:04:05.745Z,4.70
2019-04-16T08:06:36.490Z,6.30
2019-04-16T08:09:08.871Z,6.57
2019-04-16T08:11:40.396Z,6.07
2019-04-16T08:14:14.108Z,5.37
2019-04-16T08:16:47.701Z,8.33
2019-04-16T08:19:16.149Z,5.17
2019-04-16T08:21:46.947Z,6.10
2019-04-16T08:24:24.820Z,5.00
2019-04-16T08:26:54.383Z,4.30
2019-04-16T08:29:26.475Z,4.77
2019-04-16T08:31:57.892Z,4.77
2019-04-16T08:34:29.410Z,6.73
2019-04-16T08:37:00.243Z,6.07
2019-04-16T08:39:30.438Z,4.53
2019-04-16T08:42:01.453Z,6.07
2019-04-16T08:44:35.252Z,7.30
2019-04-16T08:47:04.015Z,5.63
2019-04-16T08:49:37.392Z,4.53
2019-04-16T08:52:10.264Z,3.60
2019-04-16T08:54:40.525Z,3.33
2019-04-16T08:57:10.803Z,3.40
2019-04-16T08:59:43.939Z,4.87
2019-04-16T09:02:14.565Z,6.67
2019-04-16T09:04:44.811Z,6.53
2019-04-16T09:07:33.913Z,4.67
2019-04-16T09:10:17.474Z,4.43
2019-04-16T09:12:42.104Z,5.67
2019-04-16T09:15:12.635Z,5.07
2019-04-16T09:17:49.027Z,4.50
2019-04-16T09:20:25.457Z,4.47
2019-04-16T09:22:58.776Z,4.20
2019-04-16T09:25:55.539Z,4.33
2019-04-16T09:28:50.883Z,4.70
2019-04-16T09:31:42.997Z,3.97
2019-04-16T09:34:24.429Z,3.23
2019-04-16T09:37:25.487Z,4.17
2019-04-16T09:40:17.898Z,4.13
2019-04-16T09:42:44.753Z,4.30
2019-04-16T09:45:18.994Z,4.67
2019-04-16T09:47:49.161Z,5.27
2019-04-16T09:50:19.747Z,4.75
2019-04-16T09:52:52.481Z,4.10
2019-04-16T09:55:22.081Z,3.80
2019-04-16T09:57:53.582Z,3.90
2019-04-16T10:00:30.525Z,3.70
2019-04-16T10:03:09.144Z,3.73
2019-04-16T10:05:39.563Z,3.97
2019-04-16T10:08:12.765Z,4.80
2019-04-16T10:10:41.834Z,4.90
2019-04-16T10:13:12.153Z,5.00
2019-04-16T10:15:42.618Z,3.73
2019-04-16T10:18:16.434Z,2.83
2019-04-16T10:20:46.923Z,3.20
2019-04-16T10:23:24.594Z,3.50
2019-04-16T10:25:54.984Z,3.30
2019-04-16T10:28:29.415Z,3.30
2019-04-16T10:30:59.877Z,2.83
2019-04-16T10:33:30.281Z,2.70
2019-04-16T10:36:01.038Z,4.67
2019-04-16T10:38:50.148Z,3.60
2019-04-16T10:41:41.607Z,3.60
2019-04-16T10:44:33.461Z,4.00
2019-04-16T10:47:29.100Z,3.30
2019-04-16T10:50:11.992Z,3.20
2019-04-16T10:53:00.266Z,3.27
2019-04-16T10:56:02.666Z,3.23
2019-04-16T10:58:50.945Z,2.90
2019-04-16T11:01:58.823Z,3.43
2019-04-16T11:04:52.370Z,3.47
2019-04-16T11:07:26.218Z,3.63
2019-04-16T11:09:56.561Z,3.20
2019-04-16T11:12:27.903Z,3.37
2019-04-16T11:14:58.194Z,3.20
2019-04-16T11:17:29.267Z,3.57
2019-04-16T11:20:00.136Z,3.57
2019-04-16T11:22:32.207Z,3.57
2019-04-16T11:25:03.045Z,3.87
2019-04-16T11:27:35.762Z,3.60
2019-04-16T11:30:09.166Z,3.80
2019-04-16T11:32:40.280Z,3.80
2019-04-16T11:35:13.030Z,5.70
2019-04-16T11:37:44.712Z,3.83
2019-04-16T11:40:16.929Z,3.70
2019-04-16T11:42:47.437Z,4.13
2019-04-16T11:45:19.572Z,3.97
2019-04-16T11:47:49.936Z,3.90
2019-04-16T11:50:20.262Z,3.87
2019-04-16T11:52:50.811Z,3.57
2019-04-16T11:55:21.092Z,3.87
2019-04-16T11:57:51.579Z,3.70
2019-04-16T12:00:30.993Z,3.67
2019-04-16T12:03:19.791Z,4.10
2019-04-16T12:06:26.521Z,4.27
2019-04-16T12:09:03.157Z,4.10
2019-04-16T12:11:54.013Z,6.00
2019-04-16T12:14:42.165Z,5.77
2019-04-16T12:17:32.285Z,5.77
2019-04-16T12:20:21.461Z,5.57
2019-04-16T12:23:13.525Z,4.40
2019-04-16T12:26:01.322Z,4.90
2019-04-16T12:28:48.148Z,5.77
2019-04-16T12:31:35.406Z,6.10
2019-04-16T12:34:22.402Z,4.73
2019-04-16T12:37:03.332Z,7.10
2019-04-16T12:39:43.956Z,6.47
2019-04-16T12:42:41.258Z,5.57
2019-04-16T12:45:20.070Z,4.63
2019-04-16T12:48:04.865Z,5.00
2019-04-16T12:50:46.965Z,4.57
2019-04-16T12:53:23.626Z,4.37
2019-04-16T12:56:15.794Z,4.20
2019-04-16T12:58:51.626Z,6.90
2019-04-16T13:01:40.865Z,5.23
2019-04-16T13:04:39.529Z,4.50
2019-04-16T13:07:22.921Z,4.47
2019-04-16T13:09:57.630Z,5.43
2019-04-16T13:13:01.896Z,5.37
2019-04-16T13:15:51.583Z,10.27
2019-04-16T13:18:46.901Z,7.83
2019-04-16T13:21:19.723Z,9.73
2019-04-16T13:24:09.077Z,6.23
2019-04-16T13:26:58.310Z,4.73
2019-04-16T13:29:31.046Z,5.80
2019-04-16T13:32:01.441Z,6.13
2019-04-16T13:34:31.782Z,8.67
2019-04-16T13:37:02.254Z,9.83
2019-04-16T13:39:54.694Z,6.63
2019-04-16T13:42:25.626Z,6.20
2019-04-16T13:45:15.803Z,5.40
2019-04-16T13:47:46.009Z,4.97
2019-04-16T13:50:24.173Z,5.27
2019-04-16T13:53:00.619Z,4.90
2019-04-16T13:55:44.591Z,5.03
2019-04-16T13:58:25.973Z,5.33
2019-04-16T14:01:02.614Z,5.57
2019-04-16T14:03:33.248Z,5.27
2019-04-16T14:06:03.548Z,6.60
2019-04-16T14:08:34.341Z,8.37
2019-04-16T14:11:07.775Z,6.00
2019-04-16T14:13:38.131Z,11.93
2019-04-16T14:16:12.752Z,7.73
2019-04-16T14:18:42.503Z,7.00
2019-04-16T14:21:13.000Z,6.70
2019-04-16T14:23:43.402Z,7.37
2019-04-16T14:26:14.040Z,7.07
2019-04-16T14:28:51.985Z,7.20
2019-04-16T14:31:18.557Z,7.33
2019-04-16T14:34:08.735Z,8.20
2019-04-16T14:36:40.342Z,8.00
2019-04-16T14:39:24.972Z,8.07
2019-04-16T14:41:55.438Z,9.00
2019-04-16T14:44:27.686Z,8.20
2019-04-16T14:47:00.645Z,9.43
2019-04-16T14:49:30.181Z,9.43
2019-04-16T14:52:02.132Z,9.50
2019-04-16T14:54:54.604Z,9.60
2019-04-16T14:57:24.911Z,9.37
2019-04-16T15:00:23.417Z,9.60
2019-04-16T15:03:09.344Z,9.13
2019-04-16T15:05:49.804Z,10.33
2019-04-16T15:08:42.140Z,10.83
2019-04-16T15:11:29.506Z,10.90
2019-04-16T15:14:11.865Z,11.10
2019-04-16T15:16:50.637Z,11.37
2019-04-16T15:19:36.910Z,12.57
2019-04-16T15:22:31.458Z,12.03
2019-04-16T15:25:23.497Z,10.83
2019-04-16T15:28:12.090Z,11.10
2019-04-16T15:30:53.486Z,10.47
2019-04-16T15:33:41.387Z,9.67
2019-04-16T15:36:19.413Z,10.27
2019-04-16T15:38:58.911Z,10.23
2019-04-16T15:41:48.383Z,10.77
2019-04-16T15:44:23.765Z,11.37
2019-04-16T15:47:15.033Z,12.23
2019-04-16T15:49:58.697Z,11.27
2019-04-16T15:52:41.362Z,11.53
2019-04-16T15:55:24.223Z,11.83
2019-04-16T15:58:21.656Z,10.63
2019-04-16T16:01:16.763Z,12.33
2019-04-16T16:04:09.438Z,12.00
2019-04-16T16:06:51.781Z,11.77
2019-04-16T16:09:26.605Z,11.70
2019-04-16T16:12:09.797Z,10.37
2019-04-16T16:14:40.673Z,11.00
2019-04-16T16:17:11.559Z,11.50
2019-04-16T16:19:43.193Z,11.87
2019-04-16T16:22:16.772Z,12.23
2019-04-16T16:24:49.015Z,10.90
2019-04-16T16:27:23.563Z,11.57
2019-04-16T16:29:54.416Z,11.83
2019-04-16T16:32:25.484Z,12.20
2019-04-16T16:34:56.176Z,11.47
2019-04-16T16:37:26.582Z,12.10
2019-04-16T16:39:57.679Z,12.10
2019-04-16T16:42:28.507Z,12.27
2019-04-16T16:45:01.711Z,12.33
2019-04-16T16:47:40.727Z,12.27
2019-04-16T16:50:15.128Z,12.27
2019-04-16T16:53:15.109Z,12.77
2019-04-16T16:55:48.334Z,13.80
2019-04-16T16:58:44.650Z,13.27
2019-04-16T17:01:36.984Z,12.97
2019-04-16T17:04:14.335Z,12.50
2019-04-16T17:06:45.123Z,12.47
2019-04-16T17:09:36.044Z,13.13
2019-04-16T17:12:10.058Z,13.67
2019-04-16T17:14:40.851Z,14.07
2019-04-16T17:17:14.916Z,14.53
2019-04-16T17:19:44.762Z,14.47
2019-04-16T17:22:17.428Z,14.03
2019-04-16T17:24:47.270Z,13.93
2019-04-16T17:27:17.817Z,15.13
2019-04-16T17:29:49.867Z,14.07
2019-04-16T17:32:21.189Z,16.20
2019-04-16T17:34:53.725Z,14.30
2019-04-16T17:37:27.964Z,15.87
2019-04-16T17:39:59.816Z,15.20
2019-04-16T17:42:37.713Z,14.70
2019-04-16T17:45:27.109Z,14.40
2019-04-16T17:48:02.869Z,14.73
2019-04-16T17:50:51.566Z,14.27
2019-04-16T17:53:34.905Z,14.20
2019-04-16T17:56:23.189Z,15.67
2019-04-16T17:58:59.944Z,14.23
2019-04-16T18:01:48.912Z,15.50
2019-04-16T18:04:36.786Z,15.13
2019-04-16T18:07:38.217Z,13.90
2019-04-16T18:10:40.272Z,14.27
2019-04-16T18:13:31.892Z,13.87
2019-04-16T18:16:20.981Z,14.10
2019-04-16T18:19:04.156Z,14.10
2019-04-16T18:21:45.706Z,15.57
2019-04-16T18:24:23.973Z,13.83
2019-04-16T18:27:15.507Z,14.40
2019-04-16T18:29:58.084Z,14.00
2019-04-16T18:32:57.047Z,13.13
2019-04-16T18:35:52.896Z,13.13
2019-04-16T18:38:56.317Z,13.50
2019-04-16T18:41:40.242Z,13.23
2019-04-16T18:44:32.593Z,13.13
2019-04-16T18:47:20.840Z,12.47
2019-04-16T18:49:52.535Z,12.50
2019-04-16T18:52:23.339Z,11.93
2019-04-16T18:54:55.309Z,12.17
2019-04-16T18:57:28.120Z,11.27
2019-04-16T18:59:58.950Z,11.67
2019-04-16T19:02:31.000Z,10.87
2019-04-16T19:05:01.469Z,11.23
2019-04-16T19:07:36.176Z,11.70
2019-04-16T19:10:08.054Z,11.80
2019-04-16T19:12:38.494Z,11.43
2019-04-16T19:15:09.150Z,11.63
2019-04-16T19:17:39.812Z,11.73
2019-04-16T19:20:17.148Z,10.90
2019-04-16T19:22:46.540Z,11.03
2019-04-16T19:25:17.082Z,11.53
2019-04-16T19:27:49.087Z,11.80
2019-04-16T19:30:22.658Z,13.03
2019-04-16T19:32:52.684Z,15.43
2019-04-16T19:35:23.211Z,15.77
2019-04-16T19:37:53.624Z,17.83
2019-04-16T19:40:23.948Z,21.77
2019-04-16T19:42:54.673Z,24.83
2019-04-16T19:45:26.343Z,23.13
2019-04-16T19:48:00.560Z,25.40
2019-04-16T19:50:35.860Z,22.43
2019-04-16T19:53:01.911Z,22.33
2019-04-16T19:55:32.577Z,22.70
2019-04-16T19:58:03.603Z,19.60
2019-04-16T20:00:34.484Z,17.10
2019-04-16T20:03:05.332Z,16.87
2019-04-16T20:05:35.955Z,15.97
2019-04-16T20:08:06.266Z,15.20
2019-04-16T20:10:36.613Z,15.50
2019-04-16T20:13:07.115Z,14.27
2019-04-16T20:15:43.223Z,15.80
2019-04-16T20:18:10.517Z,16.30
2019-04-16T20:20:40.823Z,16.50
2019-04-16T20:23:11.272Z,15.53
2019-04-16T20:25:41.528Z,16.00
2019-04-16T20:28:15.313Z,16.17
2019-04-16T20:30:44.178Z,16.07
2019-04-16T20:33:14.492Z,16.20
2019-04-16T20:35:44.833Z,15.50
2019-04-16T20:38:17.074Z,15.20
2019-04-16T20:40:47.821Z,15.67
2019-04-16T20:43:18.144Z,14.87
2019-04-16T20:45:49.216Z,14.47
2019-04-16T20:48:20.895Z,15.13
2019-04-16T20:50:53.018Z,15.37
2019-04-16T20:53:23.603Z,14.90
2019-04-16T20:55:53.905Z,14.73
2019-04-16T20:58:24.504Z,15.00
2019-04-16T21:00:57.109Z,16.03
2019-04-16T21:03:30.818Z,14.17
2019-04-16T21:06:00.151Z,14.37
2019-04-16T21:08:30.894Z,14.33
2019-04-16T21:11:01.351Z,14.87
2019-04-16T21:13:31.621Z,14.17
2019-04-16T21:16:03.656Z,14.37
2019-04-16T21:18:36.230Z,14.97
2019-04-16T21:21:06.891Z,14.20
2019-04-16T21:23:37.940Z,15.20
2019-04-16T21:26:08.457Z,14.43
2019-04-16T21:28:48.622Z,15.27
2019-04-16T21:31:26.274Z,13.83
2019-04-16T21:34:15.795Z,14.50
2019-04-16T21:36:54.007Z,14.90
2019-04-16T21:39:29.042Z,14.00
2019-04-16T21:42:02.809Z,13.50
2019-04-16T21:44:31.534Z,14.50
2019-04-16T21:47:01.970Z,14.63
2019-04-16T21:49:38.822Z,14.73
2019-04-16T21:52:08.023Z,13.80
2019-04-16T21:54:39.807Z,14.27
2019-04-16T21:57:13.552Z,14.10
2019-04-16T21:59:42.230Z,14.07
2019-04-16T22:02:21.095Z,14.70
2019-04-16T22:04:51.546Z,14.07
2019-04-16T22:07:24.689Z,13.40
2019-04-16T22:09:53.797Z,13.53
2019-04-16T22:12:25.102Z,13.33
2019-04-16T22:14:55.965Z,13.33
2019-04-16T22:17:29.837Z,12.73
2019-04-16T22:20:04.090Z,13.43
2019-04-16T22:22:33.857Z,13.50
2019-04-16T22:25:04.460Z,14.07
2019-04-16T22:27:36.877Z,14.10
2019-04-16T22:30:07.215Z,12.30
2019-04-16T22:32:37.622Z,13.97
2019-04-16T22:35:08.932Z,13.57
2019-04-16T22:37:39.222Z,13.70
2019-04-16T22:40:27.744Z,14.43
2019-04-16T22:43:15.804Z,13.80
2019-04-16T22:46:03.388Z,14.40
2019-04-16T22:48:33.937Z,14.53
2019-04-16T22:51:09.332Z,14.17
2019-04-16T22:53:36.234Z,14.30
2019-04-16T22:56:07.017Z,14.67
2019-04-16T22:58:49.819Z,14.57
2019-04-16T23:01:22.020Z,13.67
2019-04-16T23:03:54.431Z,13.83
2019-04-16T23:06:25.104Z,13.30
2019-04-16T23:08:55.380Z,13.37
2019-04-16T23:11:26.824Z,13.33
2019-04-16T23:13:57.127Z,13.33
2019-04-16T23:16:28.047Z,13.77
2019-04-16T23:18:58.594Z,13.43
2019-04-16T23:21:28.870Z,14.17
2019-04-16T23:23:59.150Z,14.33
2019-04-16T23:26:32.147Z,13.03
2019-04-16T23:29:01.300Z,13.10
2019-04-16T23:31:31.630Z,12.70
2019-04-16T23:34:06.421Z,12.13
2019-04-16T23:36:34.936Z,11.50
2019-04-16T23:39:06.544Z,11.90
2019-04-16T23:41:37.502Z,12.03
2019-04-16T23:44:26.771Z,11.37
2019-04-16T23:47:19.378Z,11.67
2019-04-16T23:49:55.987Z,12.03
2019-04-16T23:52:45.614Z,12.03
2019-04-16T23:55:33.698Z,10.60
2019-04-16T23:58:32.400Z,11.50
